NCAR-RAP Real-Time Weather Data

Output produced by METARs form (06 May 2021  17:09 UTC)
found at http://weather.rap.ucar.edu/surface/
 
KPIA 061654Z 34007G22KT 10SM BKN075 13/06 A3008 RMK AO2 RAB36E45 SLP186 P0000 T01330056
KPIA 061554Z 32007G16KT 300V360 10SM BKN080 BKN090 15/07 A3006 RMK AO2 RAE1456 SLP181 P0000 T01500067
KPIA 061454Z 25004KT 10SM -RA FEW033 FEW070 BKN085 14/09 A3006 RMK AO2 RAB1356E05B27 SLP180 P0000 60000 T01390094 56003
KPIA 061354Z 18006KT 10SM FEW055 OVC080 12/08 A3006 RMK AO2 RAB32E51 SLP180 P0000 T01170083
KPIA 061254Z 21003KT 10SM OVC080 12/08 A3007 RMK AO2 RAB20E33 SLP182 P0000 T01170078
KPIA 061154Z 21008KT 10SM OVC095 12/07 A3007 RMK AO2 SLP183 T01170067 10117 20094 56004
KPIA 061054Z 21008KT 10SM FEW060 OVC090 11/07 A3007 RMK AO2 SLP183 T01110067
KPIA 060954Z 20006KT 10SM OVC100 11/07 A3007 RMK AO2 SLP182 T01060067
KPIA 060854Z 19006KT 10SM CLR 11/06 A3008 RMK AO2 SLP187 T01060061 56012
KPIA 060754Z 19005KT 10SM CLR 11/05 A3009 RMK AO2 SLP188 T01060050
KPIA 060654Z 16003KT 10SM BKN100 12/04 A3010 RMK AO2 SLP192 T01170044
KPIA 060554Z 00000KT 10SM BKN120 11/04 A3012 RMK AO2 SLP199 T01110039 10167 20100 401890089 55008
KPIA 060454Z 00000KT 10SM CLR 11/04 A3012 RMK AO2 SLP199 T01060044
KPIA 060354Z 00000KT 10SM CLR 11/04 A3014 RMK AO2 SLP207 T01060044
KPIA 060254Z 00000KT 10SM CLR 12/04 A3014 RMK AO2 SLP208 T01220039 53009